createdAt,value
2023-04-23T00:01:19.330Z,12.50
2023-04-23T00:03:46.835Z,12.50
2023-04-23T00:06:14.494Z,12.40
2023-04-23T00:08:41.996Z,12.40
2023-04-23T00:11:11.261Z,12.40
2023-04-23T00:13:38.321Z,12.30
2023-04-23T00:16:05.621Z,12.40
2023-04-23T00:18:32.489Z,12.30
2023-04-23T00:21:01.701Z,12.40
2023-04-23T00:23:30.817Z,12.30
2023-04-23T00:25:59.891Z,12.40
2023-04-23T00:28:29.294Z,12.40
2023-04-23T00:30:56.063Z,12.40
2023-04-23T00:33:22.942Z,12.40
2023-04-23T00:35:52.661Z,12.40
2023-04-23T00:38:22.024Z,12.40
2023-04-23T00:40:51.544Z,12.40
2023-04-23T00:43:19.344Z,12.40
2023-04-23T00:45:46.558Z,12.40
2023-04-23T00:48:13.537Z,12.50
2023-04-23T00:50:41.498Z,12.50
2023-04-23T00:53:08.862Z,12.50
2023-04-23T00:55:35.813Z,12.50
2023-04-23T00:58:02.765Z,12.50
2023-04-23T01:00:29.681Z,12.40
2023-04-23T01:02:58.422Z,12.40
2023-04-23T01:05:25.847Z,12.40
2023-04-23T01:07:52.856Z,12.40
2023-04-23T01:10:19.902Z,12.30
2023-04-23T01:12:50.540Z,12.30
2023-04-23T01:15:20.111Z,12.20
2023-04-23T01:17:47.286Z,12.10
2023-04-23T01:20:16.573Z,12.10
2023-04-23T01:22:43.378Z,12.10
2023-04-23T01:25:10.359Z,12.10
2023-04-23T01:27:40.453Z,12.10
2023-04-23T01:30:07.554Z,12.10
2023-04-23T01:32:34.840Z,12.00
2023-04-23T01:35:02.360Z,12.00
2023-04-23T01:37:30.111Z,12.00
2023-04-23T01:39:56.948Z,12.00
2023-04-23T01:42:23.742Z,12.00
2023-04-23T01:44:53.568Z,12.00
2023-04-23T01:47:20.693Z,12.00
2023-04-23T01:49:47.532Z,12.00
2023-04-23T01:52:16.867Z,12.00
2023-04-23T01:54:43.873Z,12.00
2023-04-23T01:57:10.804Z,12.10
2023-04-23T01:59:40.648Z,12.10
2023-04-23T02:02:11.055Z,12.20
2023-04-23T02:04:39.032Z,12.30
2023-04-23T02:07:09.029Z,12.30
2023-04-23T02:09:38.432Z,12.40
2023-04-23T02:12:05.259Z,12.40
2023-04-23T02:14:32.063Z,12.40
2023-04-23T02:16:58.848Z,12.40
2023-04-23T02:19:26.155Z,12.40
2023-04-23T02:21:55.284Z,12.30
2023-04-23T02:24:24.632Z,12.30
2023-04-23T02:26:51.454Z,12.30
2023-04-23T02:29:18.395Z,12.30
2023-04-23T02:31:47.722Z,12.20
2023-04-23T02:34:14.616Z,12.20
2023-04-23T02:36:41.499Z,12.20
2023-04-23T02:39:08.314Z,12.20
2023-04-23T02:41:35.114Z,12.10
2023-04-23T02:44:01.893Z,12.10
2023-04-23T02:46:28.961Z,12.10
2023-04-23T02:48:55.936Z,12.10
2023-04-23T02:51:22.706Z,12.10
2023-04-23T02:53:49.467Z,12.10
2023-04-23T02:56:16.257Z,12.10
2023-04-23T02:58:45.551Z,12.10
2023-04-23T03:01:12.466Z,12.00
2023-04-23T03:03:39.973Z,12.00
2023-04-23T03:06:07.870Z,12.00
2023-04-23T03:08:36.919Z,11.90
2023-04-23T03:11:03.752Z,11.90
2023-04-23T03:13:30.907Z,11.90
2023-04-23T03:15:57.847Z,11.90
2023-04-23T03:18:26.230Z,11.90
2023-04-23T03:20:54.418Z,11.80
2023-04-23T03:23:21.308Z,11.80
2023-04-23T03:25:48.645Z,11.80
2023-04-23T03:28:15.499Z,11.80
2023-04-23T03:30:42.518Z,11.80
2023-04-23T03:33:09.542Z,11.80
2023-04-23T03:35:36.413Z,11.70
2023-04-23T03:38:05.758Z,11.60
2023-04-23T03:40:35.857Z,11.70
2023-04-23T03:43:06.749Z,11.70
2023-04-23T03:46:02.647Z,11.70
2023-04-23T03:48:32.451Z,11.70
2023-04-23T03:51:02.093Z,11.70
2023-04-23T03:53:35.518Z,11.70
2023-04-23T03:56:27.164Z,11.70
2023-04-23T03:59:22.881Z,11.80
2023-04-23T04:01:51.617Z,11.80
2023-04-23T04:04:18.900Z,11.80
2023-04-23T04:06:46.104Z,11.80
2023-04-23T04:09:15.360Z,11.80
2023-04-23T04:11:44.677Z,11.80
2023-04-23T04:14:11.738Z,11.80
2023-04-23T04:16:40.917Z,11.80
2023-04-23T04:19:07.735Z,11.80
2023-04-23T04:21:34.533Z,11.70
2023-04-23T04:24:05.591Z,11.70
2023-04-23T04:26:32.639Z,11.70
2023-04-23T04:29:00.123Z,11.60
2023-04-23T04:31:31.034Z,11.60
2023-04-23T04:33:58.366Z,11.50
2023-04-23T04:36:28.783Z,11.40
2023-04-23T04:38:59.086Z,11.20
2023-04-23T04:41:25.982Z,11.20
2023-04-23T04:43:52.809Z,11.10
2023-04-23T04:46:26.234Z,11.00
2023-04-23T04:48:54.318Z,10.80
2023-04-23T04:51:23.332Z,10.80
2023-04-23T04:53:50.122Z,10.80
2023-04-23T04:56:16.878Z,10.80
2023-04-23T04:58:43.700Z,10.80
2023-04-23T05:01:16.081Z,10.90
2023-04-23T05:03:43.041Z,11.00
2023-04-23T05:06:10.760Z,11.10
2023-04-23T05:08:39.981Z,11.10
2023-04-23T05:11:06.829Z,11.10
2023-04-23T05:13:33.634Z,11.20
2023-04-23T05:16:02.585Z,11.30
2023-04-23T05:18:31.907Z,11.40
2023-04-23T05:20:58.821Z,11.50
2023-04-23T05:23:25.561Z,11.70
2023-04-23T05:25:56.267Z,11.80
2023-04-23T05:28:23.086Z,11.90
2023-04-23T05:30:50.434Z,12.10
2023-04-23T05:33:17.789Z,12.10
2023-04-23T05:35:44.580Z,12.20
2023-04-23T05:38:11.701Z,12.20
2023-04-23T05:40:40.798Z,12.20
2023-04-23T05:43:09.891Z,12.20
2023-04-23T05:45:36.737Z,12.10
2023-04-23T05:48:06.112Z,11.90
2023-04-23T05:50:33.026Z,11.80
2023-04-23T05:53:02.152Z,11.90
2023-04-23T05:55:28.967Z,11.90
2023-04-23T05:57:55.814Z,12.00
2023-04-23T06:00:22.636Z,12.30
2023-04-23T06:02:52.382Z,12.70
2023-04-23T06:05:22.144Z,12.90
2023-04-23T06:07:51.283Z,13.20
2023-04-23T06:10:18.090Z,13.50
2023-04-23T06:12:47.416Z,13.70
2023-04-23T06:15:14.235Z,13.80
2023-04-23T06:17:41.149Z,14.00
2023-04-23T06:20:16.760Z,14.10
2023-04-23T06:26:45.076Z,14.10
2023-04-23T06:29:16.432Z,14.10
2023-04-23T06:35:14.213Z,13.80
2023-04-23T06:37:41.048Z,13.70
2023-04-23T06:40:08.199Z,13.70
2023-04-23T06:42:39.680Z,13.70
2023-04-23T06:45:31.455Z,13.90
2023-04-23T06:47:58.329Z,14.20
2023-04-23T06:50:25.475Z,14.20
2023-04-23T06:52:53.199Z,14.20
2023-04-23T06:55:20.977Z,14.10
2023-04-23T06:57:50.311Z,14.00
2023-04-23T07:00:17.279Z,13.80
2023-04-23T07:02:49.464Z,13.50
2023-04-23T07:05:21.671Z,13.60
2023-04-23T07:07:51.043Z,13.60
2023-04-23T07:10:18.244Z,13.70
2023-04-23T07:12:45.176Z,13.70
2023-04-23T07:15:12.072Z,13.90
2023-04-23T07:17:38.974Z,14.00
2023-04-23T07:20:08.924Z,13.90
2023-04-23T07:22:35.888Z,14.10
2023-04-23T07:25:04.458Z,14.20
2023-04-23T07:27:31.691Z,14.40
2023-04-23T07:29:58.642Z,14.50
2023-04-23T07:32:28.119Z,14.70
2023-04-23T07:34:57.517Z,14.90
2023-04-23T07:37:26.409Z,15.10
2023-04-23T07:39:54.040Z,15.30
2023-04-23T07:42:21.144Z,15.30
2023-04-23T07:44:48.165Z,15.40
2023-04-23T07:47:14.976Z,15.30
2023-04-23T07:49:42.199Z,15.30
2023-04-23T07:52:09.285Z,15.10
2023-04-23T07:54:38.747Z,15.30
2023-04-23T07:57:05.679Z,15.40
2023-04-23T07:59:34.877Z,15.70
2023-04-23T08:02:01.684Z,16.00
2023-04-23T08:04:30.955Z,16.60
2023-04-23T08:07:00.518Z,17.40
2023-04-23T08:09:27.383Z,17.50
2023-04-23T08:11:55.160Z,18.10
2023-04-23T08:14:24.471Z,17.70
2023-04-23T08:16:53.933Z,17.60
2023-04-23T08:19:23.003Z,17.90
2023-04-23T08:21:49.837Z,18.20
2023-04-23T08:24:19.127Z,17.00
2023-04-23T08:26:46.656Z,16.90
2023-04-23T08:29:13.447Z,16.70
2023-04-23T08:31:40.451Z,16.80
2023-04-23T08:34:07.346Z,17.30
2023-04-23T08:36:36.819Z,18.00
2023-04-23T08:39:04.154Z,18.60
2023-04-23T08:41:34.284Z,18.30
2023-04-23T08:44:01.081Z,18.30
2023-04-23T08:46:31.477Z,18.40
2023-04-23T08:48:59.149Z,18.70
2023-04-23T08:51:26.725Z,19.10
2023-04-23T08:53:56.104Z,19.50
2023-04-23T08:56:24.070Z,19.60
2023-04-23T08:58:51.023Z,19.60
2023-04-23T09:01:18.252Z,19.80
2023-04-23T09:03:45.584Z,19.70
2023-04-23T09:06:12.559Z,19.80
2023-04-23T09:08:39.679Z,19.90
2023-04-23T09:11:09.137Z,19.70
2023-04-23T09:13:36.736Z,19.60
2023-04-23T09:16:05.070Z,19.10
2023-04-23T09:18:32.158Z,18.80
2023-04-23T09:21:01.176Z,18.80
2023-04-23T09:23:32.071Z,18.60
2023-04-23T09:25:58.992Z,18.80
2023-04-23T09:28:47.884Z,19.10
2023-04-23T09:31:20.314Z,19.50
2023-04-23T09:33:53.615Z,19.80
2023-04-23T09:36:24.006Z,20.00
2023-04-23T09:38:51.068Z,20.10
2023-04-23T09:41:23.811Z,20.00
2023-04-23T09:43:52.746Z,19.80
2023-04-23T09:46:32.090Z,19.90
2023-04-23T09:49:00.520Z,19.60
2023-04-23T09:51:28.271Z,19.30
2023-04-23T09:54:01.498Z,18.80
2023-04-23T09:56:28.536Z,18.90
2023-04-23T09:58:57.609Z,19.10
2023-04-23T10:01:28.046Z,19.20
2023-04-23T10:03:56.676Z,18.70
2023-04-23T10:06:42.303Z,19.10
2023-04-23T10:09:13.630Z,19.70
2023-04-23T10:11:41.673Z,20.20
2023-04-23T10:14:11.901Z,20.60
2023-04-23T10:16:48.681Z,20.80
2023-04-23T10:19:18.223Z,20.80
2023-04-23T10:21:54.687Z,20.80
2023-04-23T10:24:28.388Z,20.90
2023-04-23T10:26:58.440Z,21.40
2023-04-23T10:29:27.709Z,21.40
2023-04-23T10:31:55.949Z,21.00
2023-04-23T10:34:24.386Z,21.00
2023-04-23T10:36:54.024Z,20.20
2023-04-23T10:39:44.296Z,20.20
2023-04-23T10:42:13.799Z,20.40
2023-04-23T10:47:15.061Z,20.50
2023-04-23T10:49:43.083Z,20.50
2023-04-23T10:54:41.768Z,20.50
2023-04-23T10:57:09.602Z,20.10
2023-04-23T10:59:40.020Z,19.70
2023-04-23T11:02:09.543Z,19.60
2023-04-23T11:04:41.455Z,20.10
2023-04-23T11:07:09.276Z,20.00
2023-04-23T11:09:40.178Z,20.20
2023-04-23T11:12:08.914Z,20.60
2023-04-23T11:14:38.628Z,20.90
2023-04-23T11:17:06.809Z,21.10
2023-04-23T11:19:37.437Z,21.30
2023-04-23T11:22:12.575Z,21.50
2023-04-23T11:24:43.385Z,21.50
2023-04-23T11:27:12.084Z,21.80
2023-04-23T11:29:40.217Z,22.10
2023-04-23T11:32:10.720Z,22.60
2023-04-23T11:34:39.038Z,22.70
2023-04-23T11:37:06.359Z,22.80
2023-04-23T11:39:35.487Z,23.00
2023-04-23T11:42:03.607Z,22.50
2023-04-23T11:44:31.460Z,22.10
2023-04-23T11:47:02.521Z,21.70
2023-04-23T11:49:29.565Z,21.60
2023-04-23T11:51:59.070Z,21.40
2023-04-23T11:54:29.786Z,21.30
2023-04-23T11:56:58.133Z,21.40
2023-04-23T11:59:26.464Z,21.60
2023-04-23T12:01:57.387Z,21.50
2023-04-23T12:04:25.859Z,21.80
2023-04-23T12:06:53.727Z,22.00
2023-04-23T12:09:22.452Z,22.30
2023-04-23T12:11:52.826Z,22.30
2023-04-23T12:14:22.280Z,22.20
2023-04-23T12:16:52.393Z,22.10
2023-04-23T12:19:20.993Z,22.30
2023-04-23T12:21:55.967Z,22.30
2023-04-23T12:24:23.471Z,22.00
2023-04-23T12:26:54.444Z,21.80
2023-04-23T12:29:26.736Z,21.60
2023-04-23T12:31:54.097Z,21.40
2023-04-23T12:34:21.470Z,21.40
2023-04-23T12:36:51.646Z,21.20
2023-04-23T12:39:36.799Z,21.00
2023-04-23T12:42:05.067Z,21.00
2023-04-23T12:44:35.734Z,21.00
2023-04-23T12:47:04.776Z,21.10
2023-04-23T12:49:32.410Z,21.30
2023-04-23T12:52:05.186Z,21.30
2023-04-23T12:54:39.153Z,21.00
2023-04-23T12:57:06.961Z,20.80
2023-04-23T12:59:39.274Z,20.40
2023-04-23T13:02:07.016Z,20.60
2023-04-23T13:04:36.578Z,20.80
2023-04-23T13:07:10.029Z,20.90
2023-04-23T13:09:36.810Z,21.20
2023-04-23T13:12:06.093Z,21.10
2023-04-23T13:14:32.937Z,20.70
2023-04-23T13:16:59.807Z,20.20
2023-04-23T13:19:28.804Z,20.20
2023-04-23T13:21:55.639Z,20.40
2023-04-23T13:24:22.577Z,20.80
2023-04-23T13:26:51.768Z,21.20
2023-04-23T13:29:18.644Z,21.80
2023-04-23T13:31:47.896Z,22.30
2023-04-23T13:34:14.773Z,22.50
2023-04-23T13:36:43.907Z,22.30
2023-04-23T13:39:13.319Z,21.90
2023-04-23T13:41:40.580Z,21.60
2023-04-23T13:44:07.435Z,21.30
2023-04-23T13:46:36.658Z,21.20
2023-04-23T13:49:03.590Z,21.10
2023-04-23T13:51:35.456Z,21.20
2023-04-23T13:54:03.500Z,21.30
2023-04-23T13:56:37.883Z,21.60
2023-04-23T14:02:16.306Z,21.60
2023-04-23T14:05:27.791Z,21.60
2023-04-23T14:07:54.723Z,21.60
2023-04-23T14:10:21.635Z,21.60
2023-04-23T14:12:49.036Z,21.60
2023-04-23T14:15:15.950Z,21.70
2023-04-23T14:17:44.287Z,21.80
2023-04-23T14:20:12.717Z,21.70
2023-04-23T14:22:40.024Z,21.70
2023-04-23T14:25:14.124Z,21.90
2023-04-23T14:27:48.814Z,21.50
2023-04-23T14:30:19.889Z,21.30
2023-04-23T14:32:49.751Z,21.50
2023-04-23T14:35:17.517Z,21.60
2023-04-23T14:37:46.706Z,21.80
2023-04-23T14:40:15.910Z,22.00
2023-04-23T14:42:43.156Z,22.20
2023-04-23T14:45:10.095Z,22.50
2023-04-23T14:47:36.885Z,22.40
2023-04-23T14:50:03.906Z,22.50
2023-04-23T14:52:31.597Z,22.30
2023-04-23T14:55:00.887Z,21.80
2023-04-23T14:57:30.551Z,21.30
2023-04-23T14:59:57.372Z,20.80
2023-04-23T15:02:27.095Z,20.40
2023-04-23T15:04:54.079Z,20.00
2023-04-23T15:07:20.962Z,19.70
2023-04-23T15:09:47.750Z,19.50
2023-04-23T15:12:33.482Z,19.10
2023-04-23T15:15:03.363Z,18.80
2023-04-23T15:17:32.548Z,18.50
2023-04-23T15:20:00.349Z,18.30
2023-04-23T15:22:27.208Z,18.20
2023-04-23T15:24:54.058Z,18.30
2023-04-23T15:27:24.227Z,18.50
2023-04-23T15:29:51.051Z,18.80
2023-04-23T15:32:17.935Z,19.00
2023-04-23T15:34:44.742Z,19.40
2023-04-23T15:37:11.563Z,19.50
2023-04-23T15:39:38.373Z,19.70
2023-04-23T15:42:05.855Z,19.80
2023-04-23T15:44:33.044Z,19.80
2023-04-23T15:47:03.862Z,19.50
2023-04-23T15:49:30.804Z,19.20
2023-04-23T15:51:57.552Z,19.00
2023-04-23T15:54:26.681Z,18.90
2023-04-23T15:56:56.147Z,18.70
2023-04-23T15:59:22.998Z,18.50
2023-04-23T16:01:49.967Z,18.10
2023-04-23T16:04:17.168Z,17.80
2023-04-23T16:06:44.602Z,17.50
2023-04-23T16:09:11.384Z,17.20
2023-04-23T16:11:38.648Z,16.50
2023-04-23T16:14:05.889Z,15.90
2023-04-23T16:16:38.773Z,15.50
2023-04-23T16:19:10.951Z,15.10
2023-04-23T16:21:40.361Z,14.90
2023-04-23T16:24:07.852Z,14.80
2023-04-23T16:26:34.947Z,14.70
2023-04-23T16:31:31.720Z,15.00
2023-04-23T16:33:58.784Z,15.30
2023-04-23T16:36:25.715Z,15.70
2023-04-23T16:38:52.663Z,16.00
2023-04-23T16:41:19.753Z,16.10
2023-04-23T16:43:49.155Z,16.20
2023-04-23T16:46:16.088Z,16.10
2023-04-23T16:48:46.013Z,16.00
2023-04-23T16:51:13.032Z,15.80
2023-04-23T16:53:42.256Z,15.70
2023-04-23T16:56:09.272Z,15.50
2023-04-23T16:58:37.649Z,15.40
2023-04-23T17:01:39.523Z,15.30
2023-04-23T17:04:06.876Z,15.30
2023-04-23T17:06:36.263Z,15.20
2023-04-23T17:09:05.077Z,15.20
2023-04-23T17:11:33.137Z,15.20
2023-04-23T17:14:00.107Z,15.00
2023-04-23T17:16:27.652Z,14.90
2023-04-23T17:18:55.020Z,14.70
2023-04-23T17:21:24.744Z,14.70
2023-04-23T17:23:51.616Z,14.60
2023-04-23T17:26:19.291Z,14.40
2023-04-23T17:28:48.613Z,14.40
2023-04-23T17:31:18.333Z,14.30
2023-04-23T17:33:48.982Z,14.30
2023-04-23T17:36:18.320Z,14.20
2023-04-23T17:38:47.419Z,14.10
2023-04-23T17:41:14.326Z,14.10
2023-04-23T17:43:41.305Z,14.00
2023-04-23T17:46:10.664Z,14.00
2023-04-23T17:48:38.104Z,14.00
2023-04-23T17:51:05.118Z,14.00
2023-04-23T17:53:34.214Z,14.00
2023-04-23T17:56:03.498Z,13.90
2023-04-23T17:58:30.728Z,13.90
2023-04-23T18:01:03.028Z,13.90
2023-04-23T18:03:40.668Z,13.80
2023-04-23T18:06:09.240Z,13.70
2023-04-23T18:08:42.825Z,13.70
2023-04-23T18:11:11.118Z,13.50
2023-04-23T18:13:38.209Z,13.40
2023-04-23T18:16:05.272Z,13.30
2023-04-23T18:18:32.021Z,13.20
2023-04-23T18:20:58.964Z,13.10
2023-04-23T18:23:26.312Z,13.00
2023-04-23T18:25:56.624Z,12.80
2023-04-23T18:28:23.704Z,12.70
2023-04-23T18:30:50.581Z,12.60
2023-04-23T18:33:36.170Z,12.40
2023-04-23T18:36:13.500Z,12.30
2023-04-23T18:38:44.945Z,12.20
2023-04-23T18:41:11.756Z,12.10
2023-04-23T18:43:38.602Z,12.00
2023-04-23T18:46:05.782Z,11.80
2023-04-23T18:48:35.781Z,11.80
2023-04-23T18:51:13.433Z,11.60
2023-04-23T18:53:40.286Z,11.50
2023-04-23T18:56:07.103Z,11.60
2023-04-23T18:58:34.017Z,11.80
2023-04-23T19:01:00.959Z,12.00
2023-04-23T19:03:30.481Z,12.10
2023-04-23T19:05:57.429Z,12.20
2023-04-23T19:08:28.736Z,12.30
2023-04-23T19:10:56.107Z,12.40
2023-04-23T19:13:23.224Z,12.60
2023-04-23T19:15:53.174Z,12.80
2023-04-23T19:18:22.424Z,12.90
2023-04-23T19:20:51.686Z,13.00
2023-04-23T19:23:19.700Z,13.00
2023-04-23T19:25:46.575Z,12.90
2023-04-23T19:28:13.508Z,12.80
2023-04-23T19:30:40.639Z,12.80
2023-04-23T19:33:07.580Z,12.60
2023-04-23T19:35:34.485Z,12.60
2023-04-23T19:38:01.337Z,12.50
2023-04-23T19:40:28.225Z,12.40
2023-04-23T19:42:55.876Z,12.30
2023-04-23T19:45:22.705Z,12.20
2023-04-23T19:47:49.700Z,12.10
2023-04-23T19:50:16.617Z,12.10
2023-04-23T19:52:43.519Z,12.00
2023-04-23T19:55:10.503Z,12.00
2023-04-23T19:57:39.867Z,12.00
2023-04-23T20:00:12.912Z,12.00
2023-04-23T20:02:43.552Z,12.00
2023-04-23T20:05:11.510Z,12.00
2023-04-23T20:07:38.660Z,12.00
2023-04-23T20:10:05.888Z,12.00
2023-04-23T20:12:35.274Z,12.10
2023-04-23T20:15:02.359Z,12.10
2023-04-23T20:17:34.907Z,12.10
2023-04-23T20:20:02.908Z,12.10
2023-04-23T20:22:30.050Z,12.10
2023-04-23T20:24:57.806Z,12.10
2023-04-23T20:27:26.237Z,12.10
2023-04-23T20:29:53.138Z,12.10
2023-04-23T20:32:20.191Z,12.00
2023-04-23T20:34:47.175Z,12.00
2023-04-23T20:37:21.447Z,11.90
2023-04-23T20:39:49.774Z,11.90
2023-04-23T20:42:19.037Z,11.90
2023-04-23T20:44:47.307Z,11.90
2023-04-23T20:47:17.946Z,11.80
2023-04-23T20:49:47.298Z,11.80
2023-04-23T20:52:15.305Z,11.80
2023-04-23T20:54:42.487Z,11.80
2023-04-23T20:57:09.481Z,11.80
2023-04-23T20:59:38.954Z,11.70
2023-04-23T21:02:09.339Z,11.70
2023-04-23T21:04:36.623Z,11.70
2023-04-23T21:07:06.007Z,11.70
2023-04-23T21:09:32.850Z,11.70
2023-04-23T21:12:02.338Z,11.70
2023-04-23T21:14:29.376Z,11.70
2023-04-23T21:16:56.936Z,11.70
2023-04-23T21:19:23.736Z,11.60
2023-04-23T21:21:50.733Z,11.60
2023-04-23T21:24:20.069Z,11.60
2023-04-23T21:27:11.894Z,11.60
2023-04-23T21:29:38.946Z,11.50
2023-04-23T21:32:09.471Z,11.50
2023-04-23T21:36:58.946Z,11.50
2023-04-23T21:39:26.100Z,11.40
2023-04-23T21:41:53.030Z,11.50
2023-04-23T21:44:20.761Z,11.50
2023-04-23T21:46:47.981Z,11.50
2023-04-23T21:49:14.897Z,11.40
2023-04-23T21:51:41.816Z,11.40
2023-04-23T21:54:09.215Z,11.40
2023-04-23T21:56:36.014Z,11.30
2023-04-23T21:59:03.123Z,11.30
2023-04-23T22:01:31.785Z,11.20
2023-04-23T22:04:03.363Z,11.30
2023-04-23T22:06:31.094Z,11.20
2023-04-23T22:09:02.057Z,11.20
2023-04-23T22:11:31.417Z,11.20
2023-04-23T22:14:01.165Z,11.10
2023-04-23T22:16:29.283Z,11.00
2023-04-23T22:19:00.542Z,11.00
2023-04-23T22:21:28.347Z,10.90
2023-04-23T22:23:57.840Z,10.90
2023-04-23T22:26:24.869Z,10.90
2023-04-23T22:28:51.827Z,10.90
2023-04-23T22:31:18.863Z,10.90
2023-04-23T22:33:45.860Z,10.90
2023-04-23T22:36:14.063Z,10.90
2023-04-23T22:38:41.414Z,10.90
2023-04-23T22:41:08.168Z,10.90
2023-04-23T22:43:37.664Z,10.80
2023-04-23T22:46:04.728Z,10.80
2023-04-23T22:48:34.140Z,10.80
2023-04-23T22:51:02.142Z,10.80
2023-04-23T22:53:32.584Z,10.90
2023-04-23T22:55:59.486Z,10.80
2023-04-23T22:58:26.466Z,10.80
2023-04-23T23:00:53.423Z,10.70
2023-04-23T23:03:23.620Z,10.70
2023-04-23T23:05:50.842Z,10.70
2023-04-23T23:08:17.637Z,10.60
2023-04-23T23:10:44.568Z,10.50
2023-04-23T23:13:16.095Z,10.60
2023-04-23T23:15:43.093Z,10.50
2023-04-23T23:18:10.017Z,10.50
2023-04-23T23:20:37.251Z,10.40
2023-04-23T23:23:04.138Z,10.40
2023-04-23T23:25:31.183Z,10.40
2023-04-23T23:28:00.138Z,10.30
2023-04-23T23:30:27.118Z,10.20
2023-04-23T23:32:57.475Z,10.20
2023-04-23T23:35:24.444Z,10.20
2023-04-23T23:37:51.312Z,10.10
2023-04-23T23:40:18.260Z,10.10
2023-04-23T23:42:45.137Z,10.10
2023-04-23T23:45:12.210Z,10.10
2023-04-23T23:47:39.262Z,10.20
2023-04-23T23:50:06.893Z,10.20
2023-04-23T23:52:36.132Z,10.20
2023-04-23T23:55:03.088Z,10.30
2023-04-23T23:57:30.038Z,10.30
2023-04-23T23:59:56.944Z,10.20
